SDA173 YSWS-YMRY
Flight info
| Callsign | SDA173 |
|---|---|
| Flight time | N/A |
| Altitude | FL050 |
| Route | |
| Aircraft | SR22 |
Departure
| Time | N/A |
|---|---|
| Airport | (Duplicate)Western Sydney International Airport (YSWS) |
Arrival
| Time | 2025-10-03 21:09 |
|---|---|
| Airport | Moruya Airport (YMRY) |
| Time | Latitude | Longitude | Altitude | Speed | Heading |
|---|---|---|---|---|---|
| 2025-10-03 19:51 | -33.88577 | 150.71838 | 277 ft | 0 kts | 149° |
| 2025-10-03 19:53 | -33.88579 | 150.71839 | 277 ft | 1 kts | 154° |
| 2025-10-03 19:53 | -33.88597 | 150.71577 | 286 ft | 23 kts | 260° |
| 2025-10-03 19:54 | -33.88524 | 150.71444 | 286 ft | 19 kts | 320° |
| 2025-10-03 19:54 | -33.88694 | 150.70971 | 314 ft | 20 kts | 243° |
| 2025-10-03 19:55 | -33.88940 | 150.70472 | 335 ft | 33 kts | 237° |
| 2025-10-03 19:55 | -33.89159 | 150.70036 | 326 ft | 31 kts | 235° |
| 2025-10-03 19:56 | -33.89181 | 150.69695 | 321 ft | 14 kts | 331° |
| 2025-10-03 19:58 | -33.89126 | 150.69703 | 323 ft | 7 kts | 58° |
| 2025-10-03 19:59 | -33.88771 | 150.70429 | 398 ft | 84 kts | 56° |
| 2025-10-03 19:59 | -33.88434 | 150.71099 | 448 ft | 106 kts | 59° |
| 2025-10-03 20:00 | -33.87155 | 150.73778 | 606 ft | 130 kts | 60° |
| 2025-10-03 20:00 | -33.86381 | 150.75617 | 886 ft | 128 kts | 84° |
| 2025-10-03 20:01 | -33.86684 | 150.77850 | 904 ft | 141 kts | 92° |
| 2025-10-03 20:01 | -33.86525 | 150.78614 | 901 ft | 143 kts | 63° |
| 2025-10-03 20:02 | -33.84913 | 150.81767 | 913 ft | 150 kts | 58° |
| 2025-10-03 20:02 | -33.84353 | 150.82837 | 914 ft | 151 kts | 58° |
| 2025-10-03 20:03 | -33.83333 | 150.85039 | 907 ft | 151 kts | 73° |
| 2025-10-03 20:03 | -33.82716 | 150.87454 | 915 ft | 151 kts | 73° |
| 2025-10-03 20:04 | -33.81769 | 150.91108 | 909 ft | 153 kts | 73° |
| 2025-10-03 20:04 | -33.81131 | 150.93560 | 893 ft | 154 kts | 76° |
| 2025-10-03 20:05 | -33.80855 | 150.96103 | 883 ft | 153 kts | 84° |
| 2025-10-03 20:05 | -33.80732 | 150.97379 | 880 ft | 154 kts | 84° |
| 2025-10-03 20:06 | -33.80745 | 150.99932 | 868 ft | 153 kts | 100° |
| 2025-10-03 20:06 | -33.81106 | 151.02454 | 863 ft | 153 kts | 103° |
| 2025-10-03 20:07 | -33.81552 | 151.04954 | 855 ft | 153 kts | 103° |
| 2025-10-03 20:07 | -33.82009 | 151.07464 | 846 ft | 153 kts | 103° |
| 2025-10-03 20:08 | -33.82727 | 151.11199 | 829 ft | 153 kts | 104° |
| 2025-10-03 20:08 | -33.83242 | 151.13684 | 822 ft | 152 kts | 107° |
| 2025-10-03 20:09 | -33.83841 | 151.16137 | 815 ft | 152 kts | 108° |
| 2025-10-03 20:09 | -33.84150 | 151.17358 | 800 ft | 152 kts | 108° |
| 2025-10-03 20:10 | -33.85082 | 151.21011 | 782 ft | 152 kts | 108° |
| 2025-10-03 20:10 | -33.86384 | 151.22741 | 751 ft | 149 kts | 176° |
| 2025-10-03 20:11 | -33.88398 | 151.22231 | 741 ft | 148 kts | 202° |
| 2025-10-03 20:11 | -33.90160 | 151.20954 | 733 ft | 148 kts | 216° |
| 2025-10-03 20:12 | -33.92585 | 151.18661 | 715 ft | 148 kts | 219° |
| 2025-10-03 20:13 | -33.94385 | 151.17535 | 692 ft | 148 kts | 185° |
| 2025-10-03 20:13 | -33.95410 | 151.17740 | 689 ft | 149 kts | 168° |
| 2025-10-03 20:13 | -33.97390 | 151.17831 | 728 ft | 144 kts | 214° |
| 2025-10-03 20:14 | -33.98065 | 151.15654 | 814 ft | 142 kts | 261° |
| 2025-10-03 20:14 | -33.98312 | 151.13251 | 905 ft | 146 kts | 262° |
| 2025-10-03 20:15 | -33.98559 | 151.10797 | 1002 ft | 148 kts | 262° |
| 2025-10-03 20:15 | -33.98805 | 151.08330 | 1093 ft | 149 kts | 262° |
| 2025-10-03 20:16 | -33.99178 | 151.04606 | 1227 ft | 149 kts | 262° |
| 2025-10-03 20:17 | -33.99427 | 151.02124 | 1310 ft | 150 kts | 263° |
| 2025-10-03 20:17 | -33.99552 | 151.00875 | 1355 ft | 150 kts | 263° |
| 2025-10-03 20:17 | -33.99802 | 150.98373 | 1443 ft | 151 kts | 263° |
| 2025-10-03 20:18 | -34.00052 | 150.95863 | 1536 ft | 151 kts | 263° |
| 2025-10-03 20:18 | -34.00301 | 150.93346 | 1625 ft | 151 kts | 263° |
| 2025-10-03 20:19 | -34.00551 | 150.90817 | 1710 ft | 152 kts | 263° |
| 2025-10-03 20:19 | -34.00800 | 150.88286 | 1800 ft | 152 kts | 263° |
| 2025-10-03 20:20 | -34.01177 | 150.84476 | 1951 ft | 153 kts | 262° |
| 2025-10-03 20:21 | -34.01429 | 150.81928 | 2043 ft | 153 kts | 263° |
| 2025-10-03 20:21 | -34.01556 | 150.80654 | 2097 ft | 153 kts | 263° |
| 2025-10-03 20:21 | -34.01809 | 150.78098 | 2178 ft | 154 kts | 263° |
| 2025-10-03 20:22 | -34.02061 | 150.75527 | 2274 ft | 155 kts | 263° |
| 2025-10-03 20:22 | -34.02314 | 150.72950 | 2379 ft | 155 kts | 263° |
| 2025-10-03 20:23 | -34.02567 | 150.70379 | 2476 ft | 154 kts | 262° |
| 2025-10-03 20:23 | -34.02819 | 150.67807 | 2572 ft | 155 kts | 262° |
| 2025-10-03 20:24 | -34.03492 | 150.65432 | 2648 ft | 155 kts | 215° |
| 2025-10-03 20:24 | -34.04500 | 150.65022 | 2698 ft | 154 kts | 185° |
| 2025-10-03 20:25 | -34.07684 | 150.65453 | 2866 ft | 154 kts | 167° |
| 2025-10-03 20:25 | -34.09781 | 150.66017 | 2950 ft | 154 kts | 166° |
| 2025-10-03 20:26 | -34.11879 | 150.66608 | 3046 ft | 153 kts | 166° |
| 2025-10-03 20:26 | -34.13952 | 150.67192 | 3144 ft | 152 kts | 167° |
| 2025-10-03 20:27 | -34.16024 | 150.67778 | 3241 ft | 152 kts | 167° |
| 2025-10-03 20:27 | -34.17059 | 150.68072 | 3289 ft | 152 kts | 167° |
| 2025-10-03 20:28 | -34.20169 | 150.68949 | 3431 ft | 153 kts | 166° |
| 2025-10-03 20:28 | -34.21211 | 150.69246 | 3479 ft | 153 kts | 166° |
| 2025-10-03 20:29 | -34.24355 | 150.70140 | 3612 ft | 154 kts | 166° |
| 2025-10-03 20:29 | -34.26444 | 150.70733 | 3709 ft | 154 kts | 166° |
| 2025-10-03 20:30 | -34.28537 | 150.71327 | 3805 ft | 154 kts | 167° |
| 2025-10-03 20:30 | -34.30627 | 150.71917 | 3904 ft | 153 kts | 166° |
| 2025-10-03 20:31 | -34.32724 | 150.72514 | 3995 ft | 154 kts | 165° |
| 2025-10-03 20:31 | -34.34825 | 150.73113 | 4060 ft | 155 kts | 166° |
| 2025-10-03 20:32 | -34.35881 | 150.73413 | 4106 ft | 155 kts | 166° |
| 2025-10-03 20:32 | -34.38002 | 150.74015 | 4190 ft | 156 kts | 166° |
| 2025-10-03 20:33 | -34.42251 | 150.75221 | 4397 ft | 155 kts | 167° |
| 2025-10-03 20:33 | -34.43305 | 150.75519 | 4429 ft | 155 kts | 166° |
| 2025-10-03 20:34 | -34.45412 | 150.76118 | 4511 ft | 155 kts | 166° |
| 2025-10-03 20:34 | -34.47528 | 150.76723 | 4611 ft | 156 kts | 166° |
| 2025-10-03 20:35 | -34.49651 | 150.77329 | 4697 ft | 156 kts | 166° |
| 2025-10-03 20:35 | -34.50715 | 150.77633 | 4736 ft | 157 kts | 166° |
| 2025-10-03 20:36 | -34.52861 | 150.78246 | 4809 ft | 157 kts | 166° |
| 2025-10-03 20:36 | -34.55001 | 150.78857 | 4878 ft | 158 kts | 166° |
| 2025-10-03 20:37 | -34.58065 | 150.77570 | 4983 ft | 158 kts | 208° |
| 2025-10-03 20:37 | -34.60011 | 150.76296 | 5069 ft | 158 kts | 208° |
| 2025-10-03 20:38 | -34.61958 | 150.75014 | 5149 ft | 159 kts | 208° |
| 2025-10-03 20:38 | -34.63905 | 150.73726 | 5259 ft | 159 kts | 208° |
| 2025-10-03 20:39 | -34.64880 | 150.73080 | 5309 ft | 160 kts | 208° |
| 2025-10-03 20:39 | -34.66859 | 150.71767 | 5316 ft | 163 kts | 208° |
| 2025-10-03 20:40 | -34.68869 | 150.70434 | 5317 ft | 165 kts | 208° |
| 2025-10-03 20:40 | -34.71886 | 150.68432 | 5319 ft | 166 kts | 208° |
| 2025-10-03 20:41 | -34.73928 | 150.67076 | 5322 ft | 166 kts | 208° |
| 2025-10-03 20:41 | -34.75970 | 150.65719 | 5316 ft | 166 kts | 208° |
| 2025-10-03 20:42 | -34.78016 | 150.64359 | 5312 ft | 167 kts | 208° |
| 2025-10-03 20:42 | -34.80064 | 150.62997 | 5316 ft | 167 kts | 208° |
| 2025-10-03 20:43 | -34.82114 | 150.61633 | 5315 ft | 167 kts | 208° |
| 2025-10-03 20:43 | -34.83135 | 150.60952 | 5306 ft | 167 kts | 208° |
| 2025-10-03 20:44 | -34.85181 | 150.59590 | 5323 ft | 167 kts | 208° |
| 2025-10-03 20:44 | -34.88275 | 150.57528 | 5315 ft | 168 kts | 208° |
| 2025-10-03 20:45 | -34.90331 | 150.56156 | 5299 ft | 168 kts | 208° |
| 2025-10-03 20:45 | -34.92389 | 150.54783 | 5299 ft | 168 kts | 208° |
| 2025-10-03 20:46 | -34.95515 | 150.52804 | 5303 ft | 168 kts | 198° |
| 2025-10-03 20:47 | -34.97746 | 150.51897 | 5307 ft | 169 kts | 198° |
| 2025-10-03 20:47 | -34.98866 | 150.51448 | 5306 ft | 169 kts | 198° |
| 2025-10-03 20:47 | -35.01110 | 150.50548 | 5296 ft | 169 kts | 198° |
| 2025-10-03 20:48 | -35.03350 | 150.49647 | 5292 ft | 168 kts | 198° |
| 2025-10-03 20:48 | -35.04467 | 150.49198 | 5293 ft | 168 kts | 198° |
| 2025-10-03 20:49 | -35.07833 | 150.47841 | 5295 ft | 169 kts | 198° |
| 2025-10-03 20:49 | -35.10076 | 150.46936 | 5293 ft | 169 kts | 198° |
| 2025-10-03 20:50 | -35.13427 | 150.45583 | 5295 ft | 169 kts | 198° |
| 2025-10-03 20:51 | -35.15663 | 150.44680 | 5277 ft | 168 kts | 198° |
| 2025-10-03 20:51 | -35.16779 | 150.44227 | 5303 ft | 168 kts | 198° |
| 2025-10-03 20:51 | -35.19028 | 150.43318 | 5247 ft | 172 kts | 198° |
| 2025-10-03 20:52 | -35.21322 | 150.42390 | 5149 ft | 174 kts | 198° |
| 2025-10-03 20:52 | -35.23643 | 150.41449 | 5051 ft | 174 kts | 198° |
| 2025-10-03 20:53 | -35.25951 | 150.40514 | 4938 ft | 174 kts | 198° |
| 2025-10-03 20:53 | -35.28265 | 150.39575 | 4840 ft | 175 kts | 198° |
| 2025-10-03 20:54 | -35.31745 | 150.38163 | 4698 ft | 175 kts | 198° |
| 2025-10-03 20:54 | -35.32907 | 150.37692 | 4638 ft | 175 kts | 198° |
| 2025-10-03 20:55 | -35.34067 | 150.37221 | 4585 ft | 175 kts | 198° |
| 2025-10-03 20:55 | -35.37544 | 150.35809 | 4440 ft | 175 kts | 198° |
| 2025-10-03 20:56 | -35.38705 | 150.35337 | 4388 ft | 174 kts | 198° |
| 2025-10-03 20:56 | -35.42177 | 150.33926 | 4198 ft | 174 kts | 199° |
| 2025-10-03 20:57 | -35.44507 | 150.32979 | 4086 ft | 175 kts | 199° |
| 2025-10-03 20:57 | -35.46828 | 150.32035 | 3982 ft | 174 kts | 198° |
| 2025-10-03 20:58 | -35.50295 | 150.30623 | 3788 ft | 174 kts | 198° |
| 2025-10-03 20:58 | -35.51450 | 150.30153 | 3723 ft | 174 kts | 199° |
| 2025-10-03 20:59 | -35.53755 | 150.29210 | 3603 ft | 174 kts | 198° |
| 2025-10-03 20:59 | -35.56060 | 150.28270 | 3497 ft | 173 kts | 198° |
| 2025-10-03 21:00 | -35.58358 | 150.27332 | 3358 ft | 173 kts | 199° |
| 2025-10-03 21:00 | -35.60641 | 150.26398 | 3282 ft | 170 kts | 198° |
| 2025-10-03 21:01 | -35.62864 | 150.25488 | 3289 ft | 166 kts | 198° |
| 2025-10-03 21:01 | -35.65067 | 150.24587 | 3306 ft | 166 kts | 198° |
| 2025-10-03 21:02 | -35.67270 | 150.23685 | 3307 ft | 166 kts | 198° |
| 2025-10-03 21:02 | -35.69480 | 150.22780 | 3309 ft | 167 kts | 198° |
| 2025-10-03 21:03 | -35.71721 | 150.21863 | 3161 ft | 174 kts | 198° |
| 2025-10-03 21:03 | -35.74063 | 150.20899 | 2918 ft | 179 kts | 198° |
| 2025-10-03 21:04 | -35.76394 | 150.19941 | 2663 ft | 172 kts | 198° |
| 2025-10-03 21:04 | -35.78651 | 150.19014 | 2414 ft | 169 kts | 198° |
| 2025-10-03 21:05 | -35.80826 | 150.18119 | 2293 ft | 155 kts | 198° |
| 2025-10-03 21:05 | -35.81820 | 150.17712 | 2291 ft | 146 kts | 198° |
| 2025-10-03 21:06 | -35.84552 | 150.16590 | 2296 ft | 132 kts | 197° |
| 2025-10-03 21:06 | -35.86240 | 150.15865 | 2118 ft | 126 kts | 203° |
| 2025-10-03 21:07 | -35.87992 | 150.14987 | 1262 ft | 112 kts | 207° |
| 2025-10-03 21:07 | -35.88194 | 150.14970 | 367 ft | 102 kts | 227° |
| 2025-10-03 21:08 | -35.89393 | 150.14688 | 56 ft | 72 kts | 190° |
| 2025-10-03 21:08 | -35.89795 | 150.14604 | 51 ft | 0 kts | 212° |